Time;durP1;ratioP1;P1;durP2;ratioP2;P2;SDS_P1;SDS_P2;PMS_P1;PMS_P2;Temp;Humidity;BMP_temperature;BMP_pressure;BME280_temperature;BME280_humidity;BME280_pressure;Samples;Min_cycle;Max_cycle;Signal;HPM_P1;HPM_P2
2021/10/21 00:00:07;;;;;;;;;;;;;;;5.75;79.72;98573.84;5055550;28;19921;-75
2021/10/21 00:02:38;;;;;;;;;;;;;;;5.82;80.27;98562.63;5052940;28;20096;-75
2021/10/21 00:05:04;;;;;;;;;;;;;;;5.90;79.52;98557.38;5056879;28;19920;-75
2021/10/21 00:07:30;;;;;;;;;;;;;;;5.93;80.13;98554.75;5054427;28;19924;-75
2021/10/21 00:09:56;;;;;;;;;;;;;;;5.96;79.60;98546.16;5049441;28;19925;-75
2021/10/21 00:12:22;;;;;;;;;;;;;;;6.01;79.62;98532.34;5041453;28;19920;-77
2021/10/21 00:14:48;;;;;;;;;;;;;;;6.03;80.14;98507.34;5054598;28;19970;-73
2021/10/21 00:17:13;;;;;;;;;;;;;;;6.08;80.07;98499.56;5053749;28;20016;-74
2021/10/21 00:19:39;;;;;;;;;;;;;;;6.15;79.78;98502.91;5054472;28;19920;-74
2021/10/21 00:22:04;;;;;;;;;;;;;;;6.16;80.21;98496.88;5056677;28;19921;-75
2021/10/21 00:24:30;;;;;;;;;;;;;;;6.16;80.24;98513.25;5056622;28;19928;-75
2021/10/21 00:26:55;;;;;;;;;;;;;;;5.93;79.46;98435.97;5053019;28;19947;-74
2021/10/21 00:29:21;;;;;;;;;;;;;;;6.24;80.28;98466.66;5055996;28;19921;-73
2021/10/21 00:31:46;;;;;;;;;;;;;;;6.27;79.83;98427.88;5054592;28;19928;-74
2021/10/21 00:34:16;;;;;;;;;;;;;;;6.30;80.11;98447.63;5054595;28;19974;-74
2021/10/21 00:36:42;;;;;;;;;;;;;;;6.31;79.63;98465.69;5038297;28;19921;-75
2021/10/21 00:39:08;;;;;;;;;;;;;;;6.31;79.83;98470.84;5054257;28;19970;-76
2021/10/21 00:41:33;;;;;;;;;;;;;;;6.32;79.77;98475.13;5041783;28;19978;-76
2021/10/21 00:44:11;;;;;;;;;;;;;;;6.36;79.99;98485.44;5054897;28;20324;-75
2021/10/21 00:46:37;;;;;;;;;;;;;;;6.40;79.83;98481.94;5053039;28;19929;-73
2021/10/21 00:49:03;;;;;;;;;;;;;;;6.44;79.74;98475.88;5036430;28;19920;-74
2021/10/21 00:51:29;;;;;;;;;;;;;;;6.49;80.60;98468.91;5055150;28;20364;-73
2021/10/21 00:53:55;;;;;;;;;;;;;;;6.53;80.02;98469.72;5058774;28;19924;-76
2021/10/21 00:56:21;;;;;;;;;;;;;;;6.54;79.73;98459.34;5055192;28;19967;-75
2021/10/21 00:58:50;;;;;;;;;;;;;;;6.61;80.08;98455.81;5056306;28;19920;-75
2021/10/21 01:01:22;;;;;;;;;;;;;;;6.65;80.16;98453.19;5056372;28;19932;-75
2021/10/21 01:03:50;;;;;;;;;;;;;;;6.67;79.95;98446.25;5057824;28;19924;-74
2021/10/21 01:06:17;;;;;;;;;;;;;;;6.70;80.23;98441.06;5054374;28;20066;-75
2021/10/21 01:08:42;;;;;;;;;;;;;;;6.49;80.04;98388.81;5053883;28;20583;-74
2021/10/21 01:11:09;;;;;;;;;;;;;;;6.77;80.35;98432.31;5046771;28;19981;-75
2021/10/21 01:13:34;;;;;;;;;;;;;;;6.49;80.24;98375.88;5054003;28;20025;-74
2021/10/21 01:16:03;;;;;;;;;;;;;;;6.84;80.58;98423.59;5056125;28;19951;-75
2021/10/21 01:18:28;;;;;;;;;;;;;;;6.84;80.39;98408.06;5069949;28;19932;-73
2021/10/21 01:20:54;;;;;;;;;;;;;;;6.90;80.32;98400.22;5045573;28;19925;-75
2021/10/21 01:23:19;;;;;;;;;;;;;;;6.92;80.09;98398.47;5051445;28;19921;-74
2021/10/21 01:25:45;;;;;;;;;;;;;;;6.95;80.40;98384.63;5054789;28;19933;-76
2021/10/21 01:28:10;;;;;;;;;;;;;;;6.96;80.41;98390.63;5052149;28;19928;-74
2021/10/21 01:30:38;;;;;;;;;;;;;;;6.99;80.46;98396.63;5053133;28;19926;-73
2021/10/21 01:33:03;;;;;;;;;;;;;;;7.02;80.50;98375.88;5053015;28;19921;-79
2021/10/21 01:35:29;;;;;;;;;;;;;;;7.07;80.33;98373.22;5052631;28;19921;-74
2021/10/21 01:37:54;;;;;;;;;;;;;;;7.11;80.25;98389.53;5053005;28;21274;-74
2021/10/21 01:40:20;;;;;;;;;;;;;;;7.11;80.63;98382.63;5053107;28;20015;-75
2021/10/21 01:42:47;;;;;;;;;;;;;;;7.13;80.57;98390.34;5053057;28;19921;-75
2021/10/21 01:45:17;;;;;;;;;;;;;;;7.16;80.73;98373.06;5055191;28;19974;-75
2021/10/21 01:47:43;;;;;;;;;;;;;;;7.18;80.49;98366.09;5052498;28;20277;-74
2021/10/21 01:50:08;;;;;;;;;;;;;;;7.21;80.75;98371.22;5052590;28;19932;-74
2021/10/21 01:52:34;;;;;;;;;;;;;;;7.24;80.76;98363.41;5039083;28;20012;-75
2021/10/21 01:54:59;;;;;;;;;;;;;;;7.26;80.36;98347.00;5055145;28;19936;-74
2021/10/21 01:57:25;;;;;;;;;;;;;;;7.27;80.71;98365.09;5052584;28;19927;-74
2021/10/21 01:59:50;;;;;;;;;;;;;;;7.28;80.84;98364.22;5054612;28;20046;-74
2021/10/21 02:02:16;;;;;;;;;;;;;;;7.32;80.75;98347.75;5052106;28;19939;-75
2021/10/21 02:04:41;;;;;;;;;;;;;;;7.33;80.67;98352.03;5051631;28;19920;-73
2021/10/21 02:07:07;;;;;;;;;;;;;;;7.36;81.01;98338.22;5041622;28;19928;-74
2021/10/21 02:09:32;;;;;;;;;;;;;;;7.40;81.01;98334.66;5051669;28;19920;-75
2021/10/21 02:11:58;;;;;;;;;;;;;;;7.39;80.91;98339.00;5053932;28;19925;-74
2021/10/21 02:14:23;;;;;;;;;;;;;;;7.40;80.71;98319.13;5052437;28;19925;-77
2021/10/21 02:16:49;;;;;;;;;;;;;;;7.42;80.90;98332.88;5052790;28;19958;-77
2021/10/21 02:19:14;;;;;;;;;;;;;;;7.46;81.35;98329.38;5052302;28;21301;-76
2021/10/21 02:21:40;;;;;;;;;;;;;;;7.49;81.18;98313.78;5045465;28;19920;-77
2021/10/21 02:24:05;;;;;;;;;;;;;;;7.51;81.11;98305.97;5054534;28;19947;-74
2021/10/21 02:26:31;;;;;;;;;;;;;;;7.53;81.59;98320.59;5053030;28;19925;-75
2021/10/21 02:28:56;;;;;;;;;;;;;;;7.56;81.63;98344.72;5054256;28;19977;-74
2021/10/21 02:31:22;;;;;;;;;;;;;;;7.58;81.79;98327.44;5058511;28;20392;-74
2021/10/21 02:33:47;;;;;;;;;;;;;;;7.62;81.82;98324.75;5055812;28;20010;-74
2021/10/21 02:36:13;;;;;;;;;;;;;;;7.69;81.86;98333.22;5056242;28;19920;-75
2021/10/21 02:38:38;;;;;;;;;;;;;;;7.72;81.97;98320.22;5055479;28;19924;-75
2021/10/21 02:41:04;;;;;;;;;;;;;;;7.74;82.17;98310.69;5059814;28;20284;-74
2021/10/21 02:43:30;;;;;;;;;;;;;;;7.76;82.26;98306.34;5058107;28;19966;-75
2021/10/21 02:45:55;;;;;;;;;;;;;;;7.80;82.27;98296.75;5044762;28;19928;-76
2021/10/21 02:48:21;;;;;;;;;;;;;;;7.85;82.58;98300.09;5059256;28;20031;-74
2021/10/21 02:50:46;;;;;;;;;;;;;;;7.91;82.65;98289.63;5058847;28;19921;-74
2021/10/21 02:53:12;;;;;;;;;;;;;;;7.93;82.46;98294.75;5056077;28;19921;-74
2021/10/21 02:55:37;;;;;;;;;;;;;;;7.96;82.79;98305.03;5055000;28;19927;-74
2021/10/21 02:58:03;;;;;;;;;;;;;;;7.98;82.85;98291.16;5056673;28;19920;-75
2021/10/21 03:00:28;;;;;;;;;;;;;;;8.01;82.67;98281.63;5059672;28;19967;-74
2021/10/21 03:02:54;;;;;;;;;;;;;;;8.02;83.06;98284.19;5057836;28;20030;-75
2021/10/21 03:05:19;;;;;;;;;;;;;;;8.05;82.92;98281.53;5059376;28;20285;-75
2021/10/21 03:07:45;;;;;;;;;;;;;;;8.08;83.15;98263.31;5055844;28;19924;-75
2021/10/21 03:10:10;;;;;;;;;;;;;;;8.11;83.10;98250.28;5055422;28;19928;-74
2021/10/21 03:12:36;;;;;;;;;;;;;;;8.14;83.37;98257.97;5055854;28;19924;-76
2021/10/21 03:15:02;;;;;;;;;;;;;;;8.17;83.10;98264.81;5045333;28;19983;-74
2021/10/21 03:17:28;;;;;;;;;;;;;;;8.19;83.33;98275.16;5058839;28;19951;-74
2021/10/21 03:19:53;;;;;;;;;;;;;;;8.21;83.29;98258.69;5057177;28;20308;-73
2021/10/21 03:22:19;;;;;;;;;;;;;;;8.23;83.31;98243.97;5056506;28;19931;-75
2021/10/21 03:24:44;;;;;;;;;;;;;;;8.24;83.57;98250.84;5057211;28;20023;-74
2021/10/21 03:27:10;;;;;;;;;;;;;;;8.27;83.58;98235.22;5055437;28;20066;-75
2021/10/21 03:29:36;;;;;;;;;;;;;;;8.31;83.65;98235.16;5056952;28;20451;-76
2021/10/21 03:32:02;;;;;;;;;;;;;;;8.33;83.61;98238.56;5056261;28;19943;-77
2021/10/21 03:34:27;;;;;;;;;;;;;;;8.35;83.73;98249.75;5063122;28;19921;-74
2021/10/21 03:36:53;;;;;;;;;;;;;;;8.37;83.80;98230.66;5059338;28;20399;-74
2021/10/21 03:39:18;;;;;;;;;;;;;;;8.40;83.76;98225.41;5059639;28;19936;-75
2021/10/21 03:41:44;;;;;;;;;;;;;;;8.43;83.81;98214.09;5060125;28;19924;-74
2021/10/21 03:44:10;;;;;;;;;;;;;;;8.46;83.72;98223.56;5059183;28;19929;-74
2021/10/21 03:46:36;;;;;;;;;;;;;;;8.47;83.78;98236.47;5054533;28;19929;-74
2021/10/21 03:49:02;;;;;;;;;;;;;;;8.49;83.78;98233.88;5042683;28;20039;-75
2021/10/21 03:51:28;;;;;;;;;;;;;;;8.52;83.92;98231.19;5054477;28;20470;-74
2021/10/21 03:53:53;;;;;;;;;;;;;;;8.52;84.02;98223.41;5054345;28;19940;-76
2021/10/21 03:56:19;;;;;;;;;;;;;;;8.53;83.88;98235.47;5057122;28;19960;-76
2021/10/21 03:58:44;;;;;;;;;;;;;;;8.55;84.10;98257.03;5055419;28;19982;-75
2021/10/21 04:01:10;;;;;;;;;;;;;;;8.56;83.98;98235.41;5047051;28;20007;-76
2021/10/21 04:03:35;;;;;;;;;;;;;;;8.55;84.17;98236.28;5049313;28;20516;-74
2021/10/21 04:06:01;;;;;;;;;;;;;;;8.55;84.16;98226.78;5056406;28;19924;-75
2021/10/21 04:08:27;;;;;;;;;;;;;;;8.58;84.21;98231.03;5053464;28;19921;-75
2021/10/21 04:10:52;;;;;;;;;;;;;;;8.60;84.24;98242.22;5057718;28;19927;-75
2021/10/21 04:13:18;;;;;;;;;;;;;;;8.62;84.16;98240.44;5054525;28;19940;-74
2021/10/21 04:15:43;;;;;;;;;;;;;;;8.62;84.22;98221.44;5053573;28;20006;-74
2021/10/21 04:18:11;;;;;;;;;;;;;;;8.65;84.27;98216.16;5047535;28;19927;-76
2021/10/21 04:20:37;;;;;;;;;;;;;;;8.66;84.40;98215.28;5057714;28;20006;-75
2021/10/21 04:23:03;;;;;;;;;;;;;;;8.68;84.23;98229.91;5060287;28;20992;-75
2021/10/21 04:25:31;;;;;;;;;;;;;;;8.70;84.29;98227.28;5038781;28;19932;-75
2021/10/21 04:27:57;;;;;;;;;;;;;;;8.64;84.42;98207.56;5046008;28;20006;-75
2021/10/21 04:30:26;;;;;;;;;;;;;;;8.77;84.60;98217.59;5055549;28;20455;-75
2021/10/21 04:32:53;;;;;;;;;;;;;;;8.80;84.44;98227.88;5058178;28;19920;-74
2021/10/21 04:35:22;;;;;;;;;;;;;;;8.81;84.46;98216.63;5045966;28;19924;-75
2021/10/21 04:37:48;;;;;;;;;;;;;;;8.85;84.44;98205.28;5056480;28;19928;-75
2021/10/21 04:40:14;;;;;;;;;;;;;;;8.88;84.51;98192.22;5055836;28;19965;-75
2021/10/21 04:42:39;;;;;;;;;;;;;;;8.92;84.39;98208.53;5050097;28;19928;-74
2021/10/21 04:45:05;;;;;;;;;;;;;;;8.95;84.42;98208.47;5056748;28;19921;-75
2021/10/21 04:47:31;;;;;;;;;;;;;;;8.97;84.71;98204.09;5054011;28;20013;-75
2021/10/21 04:49:57;;;;;;;;;;;;;;;8.99;84.63;98197.94;5053187;28;19925;-75
2021/10/21 04:52:23;;;;;;;;;;;;;;;9.01;84.55;98201.34;5052966;28;20122;-76
2021/10/21 04:54:48;;;;;;;;;;;;;;;9.04;84.54;98195.25;5047265;28;20014;-75
2021/10/21 04:57:14;;;;;;;;;;;;;;;9.06;84.78;98190.00;5045293;28;19943;-73
2021/10/21 04:59:39;;;;;;;;;;;;;;;9.09;84.66;98195.94;5039956;28;20357;-75
2021/10/21 05:02:05;;;;;;;;;;;;;;;9.10;84.73;98207.19;5061518;28;19920;-77
2021/10/21 05:04:30;;;;;;;;;;;;;;;9.11;84.86;98214.91;5068865;28;19924;-76
2021/10/21 05:06:56;;;;;;;;;;;;;;;9.13;84.67;98210.53;5071188;28;20380;-77
2021/10/21 05:09:21;;;;;;;;;;;;;;;9.16;84.61;98217.38;5059883;28;19927;-76
2021/10/21 05:11:47;;;;;;;;;;;;;;;9.21;84.91;98214.66;5055111;28;19921;-75
2021/10/21 05:14:13;;;;;;;;;;;;;;;9.15;84.82;98213.09;5059531;28;19920;-76
2021/10/21 05:16:38;;;;;;;;;;;;;;;9.26;84.58;98215.41;5056455;28;19935;-76
2021/10/21 05:19:04;;;;;;;;;;;;;;;9.27;84.92;98212.75;5058154;28;19993;-73
2021/10/21 05:21:29;;;;;;;;;;;;;;;9.31;85.10;98210.91;5068807;28;20003;-75
2021/10/21 05:23:55;;;;;;;;;;;;;;;9.33;84.72;98197.00;5060920;28;20078;-75
2021/10/21 05:26:21;;;;;;;;;;;;;;;9.37;85.04;98208.13;5054488;28;20009;-74
2021/10/21 05:28:47;;;;;;;;;;;;;;;9.39;84.89;98227.13;5057750;28;19943;-76
2021/10/21 05:31:12;;;;;;;;;;;;;;;9.42;85.02;98215.78;5056610;28;20236;-74
2021/10/21 05:33:38;;;;;;;;;;;;;;;9.27;85.06;98181.59;5067871;28;19927;-76
2021/10/21 05:36:04;;;;;;;;;;;;;;;9.47;85.09;98186.22;5076457;28;19920;-76
2021/10/21 05:38:30;;;;;;;;;;;;;;;9.52;84.90;98186.06;5076108;28;19924;-76
2021/10/21 05:40:55;;;;;;;;;;;;;;;9.57;84.61;98193.69;5074998;28;19931;-75
2021/10/21 05:43:22;;;;;;;;;;;;;;;9.58;84.82;98208.38;5082092;28;19921;-73
2021/10/21 05:45:48;;;;;;;;;;;;;;;9.58;84.59;98221.38;5061318;28;19921;-74
2021/10/21 05:48:15;;;;;;;;;;;;;;;9.61;84.89;98222.13;5058656;28;19927;-76
2021/10/21 05:50:41;;;;;;;;;;;;;;;9.62;84.89;98213.44;5057518;28;19921;-75
2021/10/21 05:53:06;;;;;;;;;;;;;;;9.60;84.69;98229.97;5060462;28;20384;-76
2021/10/21 05:55:32;;;;;;;;;;;;;;;9.61;84.96;98229.91;5054132;28;19959;-74
2021/10/21 05:57:57;;;;;;;;;;;;;;;9.64;85.09;98224.63;5053596;28;19932;-76
2021/10/21 06:00:23;;;;;;;;;;;;;;;9.68;84.72;98209.81;5055598;28;19920;-75
2021/10/21 06:02:49;;;;;;;;;;;;;;;9.70;85.08;98218.41;5053482;28;19949;-75
2021/10/21 06:05:15;;;;;;;;;;;;;;;9.73;85.14;98236.47;5057801;28;20288;-76
2021/10/21 06:07:40;;;;;;;;;;;;;;;9.76;84.92;98230.34;5043898;28;19924;-75
2021/10/21 06:10:06;;;;;;;;;;;;;;;9.76;84.82;98230.34;5055055;28;19928;-76
2021/10/21 06:12:32;;;;;;;;;;;;;;;9.77;85.25;98250.25;5053361;28;19928;-77
2021/10/21 06:14:57;;;;;;;;;;;;;;;9.77;84.89;98230.31;5053287;28;20019;-77
2021/10/21 06:17:24;;;;;;;;;;;;;;;9.76;85.14;98202.63;5055597;28;20015;-76
2021/10/21 06:19:50;;;;;;;;;;;;;;;9.76;85.23;98181.84;5047606;28;19920;-75
2021/10/21 06:22:18;;;;;;;;;;;;;;;9.77;85.22;98185.31;5057601;28;19924;-76
2021/10/21 06:24:45;;;;;;;;;;;;;;;9.72;84.80;98184.59;5054935;28;19986;-77
2021/10/21 06:27:11;;;;;;;;;;;;;;;9.69;84.98;98174.28;5052843;28;20023;-78
2021/10/21 06:29:39;;;;;;;;;;;;;;;9.70;85.52;98165.59;5042297;28;19983;-75
2021/10/21 06:32:06;;;;;;;;;;;;;;;9.68;85.25;98154.41;5056474;28;19928;-76
2021/10/21 06:34:32;;;;;;;;;;;;;;;9.65;85.40;98171.78;5054778;28;19974;-76
2021/10/21 06:36:57;;;;;;;;;;;;;;;9.66;85.71;98175.25;5048166;28;19932;-77
2021/10/21 06:39:23;;;;;;;;;;;;;;;9.70;85.36;98173.41;5055510;28;20297;-76
2021/10/21 06:41:49;;;;;;;;;;;;;;;9.73;85.80;98174.13;5060091;28;19932;-76
2021/10/21 06:44:15;;;;;;;;;;;;;;;9.75;85.81;98172.34;5061731;28;19963;-75
2021/10/21 06:46:40;;;;;;;;;;;;;;;9.74;85.49;98169.81;5040488;28;19929;-78
2021/10/21 06:49:06;;;;;;;;;;;;;;;9.77;85.63;98167.13;5040470;28;19929;-76
2021/10/21 06:51:32;;;;;;;;;;;;;;;9.80;85.60;98164.44;5054689;28;19920;-78
2021/10/21 06:53:57;;;;;;;;;;;;;;;9.82;85.39;98156.56;5051706;28;20019;-75
2021/10/21 06:56:23;;;;;;;;;;;;;;;9.83;85.92;98179.91;5053373;28;20054;-75
2021/10/21 06:58:48;;;;;;;;;;;;;;;9.85;85.82;98166.88;5046405;28;19932;-74
2021/10/21 07:01:14;;;;;;;;;;;;;;;9.88;85.88;98177.16;5053690;28;19920;-74
2021/10/21 07:03:39;;;;;;;;;;;;;;;9.86;85.48;98156.41;5052655;28;20307;-77
2021/10/21 07:06:05;;;;;;;;;;;;;;;9.87;85.67;98158.13;5052877;28;19955;-75
2021/10/21 07:08:33;;;;;;;;;;;;;;;9.90;86.01;98126.00;5068808;28;19928;-76
2021/10/21 07:11:01;;;;;;;;;;;;;;;10.00;85.96;98116.16;5067532;28;19924;-76
2021/10/21 07:13:26;;;;;;;;;;;;;;;10.08;86.07;98116.72;5075574;28;19908;-76
2021/10/21 07:15:53;;;;;;;;;;;;;;;10.15;86.00;98139.03;5065917;28;20372;-76
2021/10/21 07:18:19;;;;;;;;;;;;;;;10.18;85.54;98153.66;5059207;28;20280;-74
2021/10/21 07:20:44;;;;;;;;;;;;;;;10.19;85.95;98166.63;5058428;28;19965;-74
2021/10/21 07:23:10;;;;;;;;;;;;;;;10.22;85.94;98182.13;5056136;28;20019;-75
2021/10/21 07:25:35;;;;;;;;;;;;;;;10.20;85.76;98173.53;5060220;28;19920;-74
2021/10/21 07:28:04;;;;;;;;;;;;;;;10.27;85.67;98168.09;5054999;28;19925;-75
2021/10/21 07:30:30;;;;;;;;;;;;;;;10.33;86.01;98183.50;5057857;28;20406;-76
2021/10/21 07:33:00;;;;;;;;;;;;;;;10.32;85.72;98179.19;5054092;28;19924;-76
2021/10/21 07:35:27;;;;;;;;;;;;;;;10.34;85.97;98174.78;5056137;28;19967;-76
2021/10/21 07:37:52;;;;;;;;;;;;;;;10.34;85.78;98185.19;5054229;28;20004;-78
2021/10/21 07:40:18;;;;;;;;;;;;;;;10.35;85.57;98194.69;5058476;28;20039;-78
2021/10/21 07:42:44;;;;;;;;;;;;;;;10.37;85.53;98192.91;5057314;28;19970;-77
2021/10/21 07:45:10;;;;;;;;;;;;;;;10.42;85.99;98191.03;5057035;28;19924;-76
2021/10/21 07:47:38;;;;;;;;;;;;;;;10.45;85.80;98182.25;5057319;28;20060;-79
2021/10/21 07:50:05;;;;;;;;;;;;;;;10.52;85.93;98197.59;5056315;28;20403;-78
2021/10/21 07:52:31;;;;;;;;;;;;;;;10.59;85.58;98194.78;5061540;28;20422;-75
2021/10/21 07:54:56;;;;;;;;;;;;;;;10.68;85.79;98199.69;5054311;28;19956;-77
2021/10/21 07:57:22;;;;;;;;;;;;;;;10.74;86.00;98207.25;5047037;28;20512;-75
2021/10/21 07:59:47;;;;;;;;;;;;;;;10.79;85.56;98199.31;5053980;28;20023;-79
2021/10/21 08:02:14;;;;;;;;;;;;;;;10.81;85.89;98216.56;5057439;28;20002;-73
2021/10/21 08:04:39;;;;;;;;;;;;;;;10.83;85.66;98225.16;5056883;28;20392;-76
2021/10/21 08:07:05;;;;;;;;;;;;;;;10.86;85.89;98226.81;5058070;28;20027;-78
2021/10/21 08:09:31;;;;;;;;;;;;;;;10.87;85.55;98219.88;5056902;28;19973;-77
2021/10/21 08:12:01;;;;;;;;;;;;;;;10.89;85.97;98218.88;5054443;28;19970;-76
2021/10/21 08:14:26;;;;;;;;;;;;;;;10.93;85.72;98222.22;5054803;28;19968;-75
2021/10/21 08:16:52;;;;;;;;;;;;;;;10.95;85.65;98228.22;5056235;28;19960;-74
2021/10/21 08:19:17;;;;;;;;;;;;;;;10.99;85.65;98217.66;5053969;28;19924;-75
2021/10/21 08:21:46;;;;;;;;;;;;;;;11.04;85.54;98212.28;5053967;28;19952;-76
2021/10/21 08:24:12;;;;;;;;;;;;;;;11.08;85.85;98215.63;5057638;28;19920;-78
2021/10/21 08:26:38;;;;;;;;;;;;;;;11.10;85.43;98214.69;5055089;28;19951;-75
2021/10/21 08:29:03;;;;;;;;;;;;;;;11.12;85.34;98199.00;5053685;28;20372;-77
2021/10/21 08:31:29;;;;;;;;;;;;;;;11.17;85.52;98191.00;5057307;28;21393;-77
2021/10/21 08:33:55;;;;;;;;;;;;;;;11.21;85.54;98182.19;5053049;28;19967;-79
2021/10/21 08:36:21;;;;;;;;;;;;;;;11.25;85.49;98192.44;5055199;28;19932;-75
2021/10/21 08:38:48;;;;;;;;;;;;;;;11.29;85.09;98196.63;5054680;28;20388;-77
2021/10/21 08:41:15;;;;;;;;;;;;;;;11.33;85.25;98199.97;5047056;28;19938;-78
2021/10/21 08:43:42;;;;;;;;;;;;;;;11.39;85.16;98204.94;5054346;28;20338;-76
2021/10/21 08:46:10;;;;;;;;;;;;;;;11.42;85.16;98204.81;5055204;28;19924;-78
2021/10/21 08:48:36;;;;;;;;;;;;;;;11.42;84.95;98215.22;5052937;28;19928;-76
2021/10/21 08:51:05;;;;;;;;;;;;;;;11.44;85.16;98209.97;5055963;28;19928;-75
2021/10/21 08:53:31;;;;;;;;;;;;;;;11.50;85.19;98203.69;5058456;28;19920;-76
2021/10/21 08:55:57;;;;;;;;;;;;;;;11.55;85.35;98202.59;5049660;28;19929;-76
2021/10/21 08:58:25;;;;;;;;;;;;;;;11.59;84.91;98169.44;5056393;28;19932;-76
2021/10/21 09:01:22;;;;;;;;;;;;;;;11.68;85.16;98169.09;5055173;28;19920;-76
2021/10/21 09:09:40;;;;;;;;;;;;;;;11.92;85.35;98165.59;5055235;28;19920;-76
2021/10/21 09:12:17;;;;;;;;;;;;;;;11.96;85.23;98162.78;5055498;28;20431;-77
2021/10/21 09:15:16;;;;;;;;;;;;;;;12.03;85.02;98160.81;5062477;28;20231;-77
2021/10/21 09:17:54;;;;;;;;;;;;;;;12.05;85.12;98167.66;5076681;28;19967;-75
2021/10/21 09:20:41;;;;;;;;;;;;;;;12.16;85.24;98166.38;5062684;28;19924;-79
2021/10/21 09:23:11;;;;;;;;;;;;;;;12.26;84.98;98172.06;5056153;28;19920;-75
2021/10/21 09:25:42;;;;;;;;;;;;;;;12.30;84.52;98178.84;5085677;22;19967;-76
2021/10/21 09:28:21;;;;;;;;;;;;;;;12.36;84.48;98183.78;5022070;28;19929;-78
2021/10/21 09:30:51;;;;;;;;;;;;;;;12.43;84.57;98189.59;4993929;28;19928;-77
2021/10/21 09:33:24;;;;;;;;;;;;;;;12.53;84.77;98185.69;5041193;28;19925;-75
2021/10/21 09:36:01;;;;;;;;;;;;;;;12.65;84.57;98185.19;4995535;28;19924;-75
2021/10/21 09:38:49;;;;;;;;;;;;;;;12.79;84.75;98187.19;5021861;28;20373;-75
2021/10/21 09:41:18;;;;;;;;;;;;;;;12.95;84.50;98189.94;5022794;28;19920;-77
2021/10/21 09:43:53;;;;;;;;;;;;;;;13.05;84.35;98206.06;5004562;28;20011;-76
2021/10/21 09:46:32;;;;;;;;;;;;;;;13.15;84.22;98208.25;5022973;28;20433;-77
2021/10/21 09:49:21;;;;;;;;;;;;;;;13.13;83.75;98205.69;5008251;28;20400;-77
2021/10/21 09:51:51;;;;;;;;;;;;;;;13.05;83.67;98200.00;5020191;28;19928;-76
2021/10/21 09:54:24;;;;;;;;;;;;;;;13.04;83.81;98193.91;5005715;28;19982;-76
2021/10/21 09:56:59;;;;;;;;;;;;;;;13.07;83.74;98187.72;5003510;28;20015;-77
2021/10/21 09:59:34;;;;;;;;;;;;;;;13.11;83.79;98181.44;5022703;28;19964;-77
2021/10/21 10:02:22;;;;;;;;;;;;;;;13.12;83.56;98175.31;5021755;28;19928;-75
2021/10/21 10:05:25;;;;;;;;;;;;;;;13.24;83.75;98173.91;5020485;28;20644;-76
2021/10/21 10:07:53;;;;;;;;;;;;;;;13.39;83.71;98178.41;5036023;28;20343;-78
2021/10/21 10:10:21;;;;;;;;;;;;;;;13.52;83.46;98181.34;5023811;28;19952;-76
2021/10/21 10:12:48;;;;;;;;;;;;;;;13.65;83.20;98171.16;5025628;28;19921;-76
2021/10/21 10:15:14;;;;;;;;;;;;;;;13.91;83.64;98178.66;5021710;28;19944;-78
2021/10/21 10:17:41;;;;;;;;;;;;;;;14.28;83.66;98190.78;5009653;28;19931;-77
2021/10/21 10:20:07;;;;;;;;;;;;;;;14.64;83.42;98202.09;5023635;28;19921;-79
2021/10/21 10:22:34;;;;;;;;;;;;;;;14.91;83.04;98188.53;4992822;28;19968;-77
2021/10/21 10:25:16;;;;;;;;;;;;;;;15.05;82.80;98188.66;4999995;28;20019;-77
2021/10/21 10:27:54;;;;;;;;;;;;;;;15.39;82.58;98188.63;5015731;28;19925;-77
2021/10/21 10:30:38;;;;;;;;;;;;;;;15.61;82.21;98208.44;5017473;28;19953;-79
2021/10/21 10:33:04;;;;;;;;;;;;;;;15.49;81.45;98209.94;5032731;28;19921;-77
2021/10/21 10:35:32;;;;;;;;;;;;;;;15.32;81.21;98201.22;5018220;28;20412;-77
2021/10/21 10:38:43;;;;;;;;;;;;;;;15.14;81.26;98199.56;5018052;28;19921;-77
2021/10/21 10:41:12;;;;;;;;;;;;;;;15.03;81.16;98197.50;5027566;28;19927;-77
2021/10/21 10:43:42;;;;;;;;;;;;;;;14.95;81.37;98199.69;5022155;28;19957;-78
2021/10/21 10:46:11;;;;;;;;;;;;;;;14.85;81.05;98201.97;5017588;28;19924;-78
2021/10/21 10:48:48;;;;;;;;;;;;;;;14.82;81.36;98200.31;5002037;28;20436;-77
2021/10/21 10:51:14;;;;;;;;;;;;;;;14.80;81.45;98191.69;5036252;28;19925;-77
2021/10/21 10:54:06;;;;;;;;;;;;;;;14.77;81.07;98194.50;5020409;28;19921;-77
2021/10/21 10:56:47;;;;;;;;;;;;;;;14.68;80.89;98187.06;5002860;28;20011;-77
2021/10/21 10:59:22;;;;;;;;;;;;;;;14.70;81.18;98196.56;4995002;28;19922;-77
2021/10/21 11:01:51;;;;;;;;;;;;;;;14.74;81.10;98192.88;5015943;28;19976;-80
2021/10/21 11:04:39;;;;;;;;;;;;;;;14.81;81.10;98182.09;5018609;28;19926;-77
2021/10/21 11:07:14;;;;;;;;;;;;;;;14.89;81.07;98174.69;5002836;28;19968;-79
2021/10/21 11:09:43;;;;;;;;;;;;;;;15.00;81.11;98174.13;4989856;28;19921;-77
2021/10/21 11:12:12;;;;;;;;;;;;;;;15.06;80.62;98181.63;5020194;28;19933;-77
2021/10/21 11:14:47;;;;;;;;;;;;;;;15.13;80.81;98190.00;5017807;28;19929;-77
2021/10/21 11:17:13;;;;;;;;;;;;;;;15.25;80.91;98176.28;5037350;28;20401;-77
2021/10/21 11:19:45;;;;;;;;;;;;;;;15.34;80.75;98174.91;5023681;28;19921;-78
2021/10/21 11:22:20;;;;;;;;;;;;;;;15.31;80.82;98181.19;5024269;28;19921;-78
2021/10/21 11:24:53;;;;;;;;;;;;;;;15.30;80.51;98182.13;5032349;28;19921;-75
2021/10/21 11:27:29;;;;;;;;;;;;;;;15.27;80.35;98184.91;4974793;28;19944;-76
2021/10/21 11:30:05;;;;;;;;;;;;;;;15.21;80.27;98182.59;4996392;28;20592;-83
2021/10/21 11:32:33;;;;;;;;;;;;;;;15.19;80.51;98187.94;4981744;28;20016;-78
2021/10/21 11:34:58;;;;;;;;;;;;;;;15.24;80.27;98189.44;4964845;28;19926;-75
2021/10/21 11:37:44;;;;;;;;;;;;;;;15.19;80.33;98193.16;4979513;28;19960;-78
2021/10/21 11:40:16;;;;;;;;;;;;;;;15.08;80.05;98192.03;4977819;28;19933;-78
2021/10/21 11:42:51;;;;;;;;;;;;;;;15.03;80.31;98200.13;4963062;28;19922;-79
2021/10/21 11:45:20;;;;;;;;;;;;;;;14.96;79.95;98206.63;4971929;28;19929;-80
2021/10/21 11:47:53;;;;;;;;;;;;;;;14.94;80.27;98208.47;4979069;28;19926;-75
2021/10/21 11:50:28;;;;;;;;;;;;;;;14.89;80.30;98211.34;4976444;28;19926;-77
2021/10/21 11:52:55;;;;;;;;;;;;;;;14.87;80.21;98214.03;4983171;28;19975;-75
2021/10/21 11:55:26;;;;;;;;;;;;;;;14.86;80.19;98214.13;4978479;28;19926;-75
2021/10/21 11:58:07;;;;;;;;;;;;;;;14.82;80.30;98221.28;4979352;28;20373;-75
2021/10/21 12:00:51;;;;;;;;;;;;;;;14.79;80.28;98217.97;4993786;28;20404;-74
2021/10/21 12:03:51;;;;;;;;;;;;;;;14.78;80.13;98217.13;4965927;28;20354;-77
2021/10/21 12:06:19;;;;;;;;;;;;;;;14.74;80.15;98218.22;4946224;28;20028;-78
2021/10/21 12:09:05;;;;;;;;;;;;;;;14.73;80.08;98225.22;4978758;28;19925;-79
2021/10/21 12:11:33;;;;;;;;;;;;;;;14.74;80.05;98219.06;4954737;28;19961;-78
2021/10/21 12:14:02;;;;;;;;;;;;;;;14.75;79.80;98220.75;4950653;28;20008;-80
2021/10/21 12:16:28;;;;;;;;;;;;;;;14.72;79.78;98214.84;4978618;28;20000;-77
2021/10/21 12:18:54;;;;;;;;;;;;;;;14.73;79.79;98216.53;4978012;28;20987;-78
2021/10/21 12:21:20;;;;;;;;;;;;;;;14.70;79.74;98209.66;4977215;28;19930;-77
2021/10/21 12:23:48;;;;;;;;;;;;;;;14.64;79.51;98215.19;4977711;28;19929;-76
2021/10/21 12:26:19;;;;;;;;;;;;;;;14.60;79.54;98224.94;4998409;28;19925;-76
2021/10/21 12:28:48;;;;;;;;;;;;;;;14.60;79.66;98218.88;5020794;28;19956;-78
2021/10/21 12:31:14;;;;;;;;;;;;;;;14.60;79.55;98221.50;5028428;28;19922;-76
2021/10/21 12:33:58;;;;;;;;;;;;;;;14.61;79.68;98215.34;5034769;28;19921;-77
2021/10/21 12:36:30;;;;;;;;;;;;;;;14.64;79.73;98212.56;5017774;28;19921;-78
2021/10/21 12:39:07;;;;;;;;;;;;;;;14.68;79.61;98208.88;5020517;28;20320;-76
2021/10/21 12:42:08;;;;;;;;;;;;;;;14.67;79.15;98216.78;5014300;28;19979;-77
2021/10/21 12:44:40;;;;;;;;;;;;;;;14.68;79.44;98223.72;4995714;28;19921;-74
2021/10/21 12:47:12;;;;;;;;;;;;;;;14.64;79.33;98225.66;5003449;28;19924;-76
2021/10/21 12:49:39;;;;;;;;;;;;;;;14.66;79.29;98215.97;5016445;28;19976;-77
2021/10/21 12:52:05;;;;;;;;;;;;;;;14.68;79.13;98224.59;4998990;28;19921;-77
2021/10/21 12:54:36;;;;;;;;;;;;;;;14.69;79.25;98218.44;5003540;28;19921;-78
2021/10/21 12:57:05;;;;;;;;;;;;;;;14.68;79.00;98213.25;5017075;28;19933;-77
2021/10/21 12:59:33;;;;;;;;;;;;;;;14.68;79.24;98224.59;5031183;28;19921;-79
2021/10/21 13:02:26;;;;;;;;;;;;;;;14.67;79.09;98227.28;5031395;28;20383;-78
2021/10/21 13:04:54;;;;;;;;;;;;;;;14.67;79.02;98233.38;5031726;28;20011;-79